Time;durP1;ratioP1;P1;durP2;ratioP2;P2;SDS_P1;SDS_P2;PMS_P1;PMS_P2;Temp;Humidity;BMP_temperature;BMP_pressure;BME280_temperature;BME280_humidity;BME280_pressure;Samples;Min_cycle;Max_cycle;Signal;HPM_P1;HPM_P2
2023/06/17 00:00:28;;;;;;;8.73;7.70;;;15.20;99.90;;;;;;5014196;28;20205;-77
2023/06/17 00:02:55;;;;;;;8.77;7.97;;;15.20;99.90;;;;;;5012567;28;20242;-77
2023/06/17 00:05:24;;;;;;;8.77;7.93;;;15.20;99.90;;;;;;5007866;28;20223;-78
2023/06/17 00:07:51;;;;;;;9.07;8.17;;;15.20;99.90;;;;;;5009197;28;20646;-76
2023/06/17 00:10:18;;;;;;;8.70;7.80;;;15.20;99.90;;;;;;5006317;28;20207;-76
2023/06/17 00:12:45;;;;;;;8.33;7.53;;;15.10;99.90;;;;;;5008330;28;20206;-78
2023/06/17 00:15:12;;;;;;;7.33;5.23;;;15.10;99.90;;;;;;5003810;28;20307;-77
2023/06/17 00:17:44;;;;;;;6.93;5.80;;;15.10;99.90;;;;;;5008402;28;20204;-78
2023/06/17 00:20:12;;;;;;;8.47;7.57;;;15.00;99.90;;;;;;5005126;28;20273;-77
2023/06/17 00:22:43;;;;;;;8.90;8.00;;;15.00;99.90;;;;;;5016183;28;20197;-75
2023/06/17 00:25:11;;;;;;;8.17;7.37;;;15.00;99.90;;;;;;5006026;28;20237;-78
2023/06/17 00:27:38;;;;;;;8.80;6.67;;;15.00;99.90;;;;;;5006098;28;20666;-77
2023/06/17 00:30:07;;;;;;;9.03;6.77;;;14.90;99.90;;;;;;5007325;28;20201;-77
2023/06/17 00:32:34;;;;;;;10.23;7.53;;;14.90;99.90;;;;;;5005715;28;20197;-79
2023/06/17 00:35:00;;;;;;;8.87;7.50;;;14.90;99.90;;;;;;5006061;28;20222;-78
2023/06/17 00:37:27;;;;;;;9.50;8.50;;;14.80;99.90;;;;;;5010451;28;20204;-76
2023/06/17 00:39:55;;;;;;;9.10;8.20;;;14.80;99.90;;;;;;5009314;28;20876;-77
2023/06/17 00:42:22;;;;;;;9.70;8.20;;;14.80;99.90;;;;;;5008779;28;20244;-78
2023/06/17 00:44:49;;;;;;;7.47;6.57;;;14.80;99.90;;;;;;5006184;28;20245;-76
2023/06/17 00:47:16;;;;;;;7.93;6.50;;;14.80;99.90;;;;;;5003704;28;20226;-77
2023/06/17 00:49:47;;;;;;;8.63;7.83;;;14.80;99.90;;;;;;5002864;28;20196;-76
2023/06/17 00:52:15;;;;;;;7.93;7.13;;;14.80;99.90;;;;;;5010544;28;20651;-77
2023/06/17 00:54:43;;;;;;;7.43;6.70;;;14.80;99.90;;;;;;5002809;28;20218;-78
2023/06/17 00:57:14;;;;;;;9.00;8.10;;;14.80;99.90;;;;;;5008715;28;20586;-78
2023/06/17 00:59:43;;;;;;;7.77;6.97;;;14.70;99.90;;;;;;5005052;28;20220;-77
2023/06/17 01:02:11;;;;;;;7.80;7.10;;;14.70;99.90;;;;;;4999403;28;20235;-77
2023/06/17 01:04:40;;;;;;;9.10;7.50;;;14.70;99.90;;;;;;5006038;28;20225;-77
2023/06/17 01:07:30;;;;;;;6.43;5.20;;;14.60;99.90;;;;;;5005164;28;20205;-77
2023/06/17 01:10:02;;;;;;;7.60;5.87;;;14.50;99.90;;;;;;5002890;28;20231;-77
2023/06/17 01:12:31;;;;;;;7.77;6.10;;;14.50;99.90;;;;;;5002431;28;20215;-77
2023/06/17 01:15:01;;;;;;;8.57;7.77;;;14.40;99.90;;;;;;5001930;28;20527;-77
2023/06/17 01:17:28;;;;;;;9.23;6.67;;;14.40;99.90;;;;;;5009140;28;20252;-77
2023/06/17 01:19:56;;;;;;;8.00;7.30;;;14.40;99.90;;;;;;5002774;28;20744;-77
2023/06/17 01:22:27;;;;;;;8.23;7.43;;;14.40;99.90;;;;;;5006440;28;20278;-78
2023/06/17 01:24:57;;;;;;;8.57;7.67;;;14.50;99.90;;;;;;5006442;28;20233;-78
2023/06/17 01:27:26;;;;;;;8.57;7.40;;;14.50;99.90;;;;;;5004310;28;20231;-77
2023/06/17 01:29:53;;;;;;;8.67;7.83;;;14.50;99.90;;;;;;5004746;28;20199;-78
2023/06/17 01:32:20;;;;;;;7.53;6.73;;;14.50;99.90;;;;;;5002741;28;20200;-77
2023/06/17 01:34:55;;;;;;;9.10;6.67;;;14.50;99.90;;;;;;5003006;28;20658;-78
2023/06/17 01:37:29;;;;;;;7.43;6.57;;;14.40;99.90;;;;;;5008744;28;20255;-77
2023/06/17 01:39:58;;;;;;;8.30;7.50;;;14.50;99.90;;;;;;5008843;28;20217;-78
2023/06/17 01:42:32;;;;;;;6.63;5.93;;;14.50;99.90;;;;;;4996165;28;20201;-79
2023/06/17 01:45:01;;;;;;;8.80;7.90;;;14.40;99.90;;;;;;4997317;28;20317;-77
2023/06/17 01:47:28;;;;;;;9.03;8.13;;;14.40;99.90;;;;;;5002957;28;20336;-77
2023/06/17 01:49:59;;;;;;;8.80;7.90;;;14.40;99.90;;;;;;5003937;28;20615;-78
2023/06/17 01:52:26;;;;;;;6.77;5.63;;;14.40;99.90;;;;;;5003997;28;20209;-79
2023/06/17 01:54:53;;;;;;;8.50;5.97;;;14.30;99.90;;;;;;5006584;28;20245;-76
2023/06/17 01:57:21;;;;;;;6.90;5.87;;;14.30;99.90;;;;;;5008406;28;20211;-76
2023/06/17 01:59:48;;;;;;;8.13;6.50;;;14.30;99.90;;;;;;5002234;28;20223;-76
2023/06/17 02:02:15;;;;;;;7.53;6.17;;;14.30;99.90;;;;;;5005903;28;20189;-79
2023/06/17 02:04:42;;;;;;;10.33;7.63;;;14.20;99.90;;;;;;5002964;28;20217;-77
2023/06/17 02:07:10;;;;;;;7.47;6.73;;;14.30;99.90;;;;;;5004742;28;20624;-79
2023/06/17 02:09:38;;;;;;;6.63;5.40;;;14.20;99.90;;;;;;4999012;28;20184;-78
2023/06/17 02:12:08;;;;;;;6.60;5.23;;;14.30;99.90;;;;;;5004783;28;20646;-76
2023/06/17 02:14:36;;;;;;;8.00;5.73;;;14.20;99.90;;;;;;5002959;28;20214;-78
2023/06/17 02:17:03;;;;;;;8.43;6.10;;;14.20;99.90;;;;;;5011029;28;20601;-78
2023/06/17 02:19:31;;;;;;;8.30;6.40;;;14.10;99.90;;;;;;5004955;28;20231;-78
2023/06/17 02:21:59;;;;;;;7.80;6.67;;;14.00;99.90;;;;;;5014299;28;20216;-76
2023/06/17 02:24:26;;;;;;;7.53;6.53;;;14.00;99.90;;;;;;5006320;28;20226;-78
2023/06/17 02:26:53;;;;;;;8.03;6.50;;;13.90;99.90;;;;;;5008021;28;20197;-76
2023/06/17 02:29:19;;;;;;;7.27;6.10;;;13.80;99.90;;;;;;5001809;28;20552;-76
2023/06/17 02:31:49;;;;;;;7.27;6.27;;;13.80;99.90;;;;;;5004853;28;20289;-76
2023/06/17 02:34:16;;;;;;;7.70;5.83;;;13.70;99.90;;;;;;5005852;28;20221;-77
2023/06/17 02:36:44;;;;;;;7.83;6.80;;;13.60;99.90;;;;;;5002758;28;20201;-77
2023/06/17 02:39:11;;;;;;;9.20;8.40;;;13.60;99.90;;;;;;4997924;28;20218;-77
2023/06/17 02:41:38;;;;;;;9.07;8.27;;;13.60;99.90;;;;;;5001941;28;20555;-76
2023/06/17 02:44:05;;;;;;;10.40;6.63;;;13.60;99.90;;;;;;5006682;28;20232;-78
2023/06/17 02:46:32;;;;;;;7.60;6.40;;;13.60;99.90;;;;;;4996485;28;20198;-77
2023/06/17 02:49:00;;;;;;;8.50;6.77;;;13.60;99.90;;;;;;4999300;28;20189;-77
2023/06/17 02:51:28;;;;;;;8.60;6.67;;;13.50;99.90;;;;;;4998812;28;20212;-76
2023/06/17 02:53:55;;;;;;;8.90;8.00;;;13.50;99.90;;;;;;5008532;28;20240;-78
2023/06/17 02:56:25;;;;;;;9.40;8.40;;;13.40;99.90;;;;;;4999049;28;20221;-77
2023/06/17 02:58:52;;;;;;;9.67;8.73;;;13.40;99.90;;;;;;5006950;28;20221;-77
2023/06/17 03:01:21;;;;;;;8.20;7.40;;;13.30;99.90;;;;;;5005178;28;20738;-77
2023/06/17 03:03:48;;;;;;;8.50;7.07;;;13.30;99.90;;;;;;5010156;28;20693;-77
2023/06/17 03:06:18;;;;;;;7.83;6.70;;;13.30;99.90;;;;;;5013179;28;20186;-76
2023/06/17 03:08:48;;;;;;;10.27;7.97;;;13.30;99.90;;;;;;5012460;28;20260;-77
2023/06/17 03:11:15;;;;;;;9.50;8.50;;;13.30;99.90;;;;;;5005732;28;21583;-77
2023/06/17 03:13:43;;;;;;;8.90;7.90;;;13.20;99.90;;;;;;5006047;28;20227;-77
2023/06/17 03:16:18;;;;;;;9.60;8.70;;;13.20;99.90;;;;;;5008845;28;20311;-76
2023/06/17 03:18:47;;;;;;;9.77;8.77;;;13.20;99.90;;;;;;5007382;28;20275;-80
2023/06/17 03:21:14;;;;;;;9.00;6.40;;;13.20;99.90;;;;;;5009543;28;20206;-83
2023/06/17 03:23:42;;;;;;;7.40;6.23;;;13.10;99.90;;;;;;5015061;28;20255;-79
2023/06/17 03:26:09;;;;;;;9.40;8.40;;;13.10;99.90;;;;;;5011255;28;20192;-78
2023/06/17 03:28:36;;;;;;;9.97;7.53;;;13.10;99.90;;;;;;5008882;28;20208;-78
2023/06/17 03:31:03;;;;;;;9.97;6.90;;;13.10;99.90;;;;;;5018080;28;20667;-79
2023/06/17 03:33:30;;;;;;;9.40;8.50;;;13.10;99.90;;;;;;5010856;28;20216;-78
2023/06/17 03:35:57;;;;;;;9.73;8.00;;;13.20;99.90;;;;;;5004711;28;20192;-77
2023/06/17 03:38:24;;;;;;;8.23;7.43;;;13.20;99.90;;;;;;5006534;28;20196;-79
2023/06/17 03:40:52;;;;;;;7.70;6.67;;;13.20;99.90;;;;;;5013257;28;20217;-78
2023/06/17 03:43:19;;;;;;;8.93;6.87;;;13.30;99.90;;;;;;5006537;28;20209;-79
2023/06/17 03:45:46;;;;;;;8.00;7.00;;;13.30;99.90;;;;;;5012278;28;20211;-78
2023/06/17 03:48:14;;;;;;;6.90;6.10;;;13.40;99.90;;;;;;5013203;28;20193;-79
2023/06/17 03:50:40;;;;;;;7.97;7.00;;;13.40;99.90;;;;;;5004623;28;20192;-81
2023/06/17 03:53:08;;;;;;;9.40;7.43;;;13.40;99.90;;;;;;5005977;28;20204;-78
2023/06/17 03:55:36;;;;;;;8.23;7.43;;;13.40;99.90;;;;;;5008924;28;20197;-80
2023/06/17 03:58:05;;;;;;;7.10;6.40;;;13.40;99.90;;;;;;5006883;28;20584;-78
2023/06/17 04:00:33;;;;;;;7.00;6.27;;;13.50;99.90;;;;;;5016639;28;20209;-79
2023/06/17 04:03:00;;;;;;;7.67;6.57;;;13.50;99.90;;;;;;5016905;28;20224;-79
2023/06/17 04:05:32;;;;;;;7.43;6.60;;;13.60;99.90;;;;;;5008447;28;20201;-79
2023/06/17 04:08:02;;;;;;;8.00;7.20;;;13.70;99.90;;;;;;5011399;28;20200;-78
2023/06/17 04:10:29;;;;;;;6.13;5.40;;;13.80;99.90;;;;;;5006475;28;20558;-78
2023/06/17 04:12:56;;;;;;;7.93;7.20;;;13.80;99.90;;;;;;5017821;28;20201;-78
2023/06/17 04:15:24;;;;;;;7.60;6.80;;;13.90;99.90;;;;;;5015221;28;20230;-79
2023/06/17 04:17:51;;;;;;;8.40;7.60;;;14.00;99.90;;;;;;4999993;28;20684;-82
2023/06/17 04:20:19;;;;;;;9.10;8.20;;;14.10;99.90;;;;;;5005347;28;20271;-80
2023/06/17 04:22:46;;;;;;;8.60;7.80;;;14.20;99.90;;;;;;4998675;28;20590;-81
2023/06/17 04:25:15;;;;;;;8.70;7.90;;;14.20;99.90;;;;;;5017094;28;20213;-80
2023/06/17 04:27:45;;;;;;;8.63;7.83;;;14.30;99.90;;;;;;5007667;28;20199;-81
2023/06/17 04:30:15;;;;;;;7.80;7.03;;;14.50;99.90;;;;;;5014352;28;20189;-81
2023/06/17 04:32:44;;;;;;;7.43;6.73;;;14.50;99.90;;;;;;5009295;28;20198;-80
2023/06/17 04:35:13;;;;;;;7.10;5.37;;;14.60;99.90;;;;;;5000993;28;20309;-81
2023/06/17 04:37:43;;;;;;;6.10;4.97;;;14.70;99.90;;;;;;5014676;28;20196;-82
2023/06/17 04:40:12;;;;;;;9.97;5.57;;;14.90;99.90;;;;;;5010015;28;20735;-78
2023/06/17 04:42:44;;;;;;;6.23;5.63;;;15.10;99.90;;;;;;5006336;28;20211;-77
2023/06/17 04:45:11;;;;;;;8.87;6.27;;;15.20;99.90;;;;;;5002936;28;20304;-78
2023/06/17 04:47:38;;;;;;;6.63;5.07;;;15.30;99.90;;;;;;5008191;28;20211;-77
2023/06/17 04:50:07;;;;;;;6.40;5.67;;;15.50;99.90;;;;;;5006622;28;20203;-78
2023/06/17 04:52:34;;;;;;;7.83;6.13;;;15.70;99.90;;;;;;5005375;28;20292;-78
2023/06/17 04:55:04;;;;;;;7.07;5.87;;;16.20;99.90;;;;;;5006316;28;20221;-78
2023/06/17 04:57:31;;;;;;;9.67;6.33;;;16.40;99.90;;;;;;4995731;28;20204;-78
2023/06/17 04:59:58;;;;;;;7.10;6.00;;;16.60;99.90;;;;;;5003343;28;20220;-78
2023/06/17 05:02:25;;;;;;;8.03;6.57;;;16.60;99.90;;;;;;5003856;28;20248;-77
2023/06/17 05:04:52;;;;;;;6.97;6.03;;;16.70;99.90;;;;;;5008085;28;20217;-78
2023/06/17 05:07:20;;;;;;;7.70;6.20;;;16.90;99.90;;;;;;5009638;28;20584;-78
2023/06/17 05:09:47;;;;;;;7.43;6.07;;;17.00;99.90;;;;;;5005320;28;20205;-77
2023/06/17 05:12:14;;;;;;;6.17;5.47;;;17.20;99.90;;;;;;5006927;28;20207;-77
2023/06/17 05:14:42;;;;;;;7.67;5.87;;;17.40;99.90;;;;;;5004353;28;20263;-80
2023/06/17 05:17:09;;;;;;;8.77;6.27;;;17.50;99.90;;;;;;5006200;28;20816;-79
2023/06/17 05:19:37;;;;;;;7.15;6.45;;;17.70;99.90;;;;;;5004261;28;20974;-82
2023/06/17 05:22:03;;;;;;;9.13;6.43;;;17.80;99.90;;;;;;5007520;28;20426;-80
2023/06/17 05:24:32;;;;;;;8.95;7.85;;;17.90;99.90;;;;;;5004103;28;20494;-80
2023/06/17 05:26:59;;;;;;;8.47;7.67;;;18.00;99.90;;;;;;5009216;28;20639;-81
2023/06/17 05:29:26;;;;;;;8.60;6.57;;;18.00;99.90;;;;;;5004243;28;20239;-81
2023/06/17 05:31:53;;;;;;;6.97;5.90;;;18.00;99.90;;;;;;5006042;28;20440;-80
2023/06/17 05:34:20;;;;;;;9.07;7.90;;;17.90;99.90;;;;;;5009193;28;20232;-80
2023/06/17 05:36:47;;;;;;;9.40;7.87;;;17.90;99.90;;;;;;5005665;28;20204;-84
2023/06/17 05:39:14;;;;;;;8.00;7.13;;;18.00;99.90;;;;;;5006715;28;20206;-80
2023/06/17 05:41:42;;;;;;;8.83;7.90;;;18.40;99.90;;;;;;5006171;28;20203;-79
2023/06/17 05:44:09;;;;;;;8.17;7.37;;;18.60;99.90;;;;;;5007986;28;20871;-80
2023/06/17 05:46:36;;;;;;;6.60;5.90;;;19.20;99.90;;;;;;5010895;28;20223;-78
2023/06/17 05:49:03;;;;;;;7.20;5.57;;;19.90;99.90;;;;;;5007915;28;20224;-80
2023/06/17 05:51:29;;;;;;;6.77;5.43;;;20.40;99.90;;;;;;4994315;28;20698;-79
2023/06/17 05:54:00;;;;;;;8.40;5.50;;;20.90;99.90;;;;;;5003265;28;20221;-79
2023/06/17 05:56:27;;;;;;;8.90;7.73;;;21.40;99.90;;;;;;5009214;28;20204;-79
2023/06/17 05:58:55;;;;;;;7.57;6.47;;;21.60;99.90;;;;;;5003945;28;20204;-79
2023/06/17 06:01:28;;;;;;;6.47;5.77;;;22.10;99.90;;;;;;5009634;28;20291;-79
2023/06/17 06:03:55;;;;;;;7.77;5.53;;;22.60;99.90;;;;;;5008444;28;20289;-80
2023/06/17 06:06:22;;;;;;;6.20;5.57;;;23.00;99.90;;;;;;5008454;28;20196;-80
2023/06/17 06:08:50;;;;;;;8.40;5.93;;;23.40;99.90;;;;;;4999186;28;20209;-77
2023/06/17 06:11:17;;;;;;;7.00;6.10;;;23.70;99.20;;;;;;5005153;28;20555;-78
2023/06/17 06:13:44;;;;;;;7.23;5.43;;;23.80;99.00;;;;;;5003812;28;20228;-78
2023/06/17 06:16:13;;;;;;;6.63;5.60;;;24.10;98.70;;;;;;4998537;28;20729;-78
2023/06/17 06:18:40;;;;;;;6.63;5.53;;;24.40;98.40;;;;;;5000904;28;20601;-76
2023/06/17 06:21:07;;;;;;;5.90;5.30;;;24.50;97.70;;;;;;5001198;28;20221;-78
2023/06/17 06:23:35;;;;;;;6.63;5.73;;;24.70;97.10;;;;;;5002451;28;20234;-77
2023/06/17 06:26:03;;;;;;;7.00;5.50;;;24.80;96.80;;;;;;5000525;28;20565;-79
2023/06/17 06:28:31;;;;;;;6.20;5.07;;;24.90;96.20;;;;;;5005200;28;20611;-78
2023/06/17 06:30:59;;;;;;;8.47;6.37;;;25.00;96.50;;;;;;5000177;28;20197;-78
2023/06/17 06:33:29;;;;;;;6.97;5.20;;;25.00;95.50;;;;;;5000359;28;20229;-79
2023/06/17 06:35:56;;;;;;;7.57;6.87;;;25.30;95.70;;;;;;4999729;28;20196;-79
2023/06/17 06:38:25;;;;;;;8.23;6.90;;;25.70;95.40;;;;;;5001067;28;20783;-79
2023/06/17 06:40:53;;;;;;;8.23;7.47;;;25.80;94.90;;;;;;4999747;28;20683;-83
2023/06/17 06:43:20;;;;;;;8.23;5.70;;;25.80;95.50;;;;;;4996017;28;20201;-80
2023/06/17 06:45:52;;;;;;;6.33;5.10;;;25.90;94.80;;;;;;4999694;28;20193;-77
2023/06/17 06:48:19;;;;;;;6.30;5.20;;;26.00;95.20;;;;;;4999360;28;20627;-79
2023/06/17 06:50:47;;;;;;;7.17;5.40;;;26.10;94.70;;;;;;5000803;28;20250;-77
2023/06/17 06:53:15;;;;;;;7.03;5.03;;;26.00;94.90;;;;;;4996179;28;20201;-77
2023/06/17 06:55:42;;;;;;;7.50;5.70;;;26.20;94.60;;;;;;4999682;28;20548;-80
2023/06/17 06:58:10;;;;;;;6.45;5.50;;;26.30;94.20;;;;;;5004629;28;20452;-83
2023/06/17 07:00:39;;;;;;;5.57;4.97;;;26.30;94.20;;;;;;5003829;28;20720;-80
2023/06/17 07:03:06;;;;;;;6.73;5.40;;;26.30;94.00;;;;;;4999556;28;20701;-82
2023/06/17 07:05:33;;;;;;;6.47;5.47;;;26.10;94.80;;;;;;5013933;28;20199;-82
2023/06/17 07:08:04;;;;;;;7.10;5.77;;;26.40;94.70;;;;;;5001699;28;20193;-84
2023/06/17 07:10:39;;;;;;;6.73;5.60;;;26.70;94.40;;;;;;5009841;28;20197;-80
2023/06/17 07:13:06;;;;;;;6.35;5.75;;;26.90;94.10;;;;;;5008172;28;20482;-79
2023/06/17 07:15:33;;;;;;;8.60;6.80;;;27.20;93.80;;;;;;4994978;28;20201;-80
2023/06/17 07:18:00;;;;;;;8.77;6.47;;;27.30;93.40;;;;;;4995485;28;20243;-79
2023/06/17 07:20:26;;;;;;;7.80;7.07;;;27.40;93.50;;;;;;5004230;28;20216;-81
2023/06/17 07:22:55;;;;;;;8.20;7.40;;;27.50;93.60;;;;;;5001045;28;20451;-81
2023/06/17 07:25:23;;;;;;;7.80;7.10;;;27.80;93.20;;;;;;5003973;28;20487;-81
2023/06/17 07:27:50;;;;;;;10.03;7.00;;;27.90;93.00;;;;;;4997168;28;20260;-83
2023/06/17 07:30:17;;;;;;;7.97;6.77;;;28.00;91.90;;;;;;5009523;28;20193;-82
2023/06/17 07:32:44;;;;;;;7.50;6.80;;;27.90;92.50;;;;;;5013060;28;20223;-77
2023/06/17 07:35:11;;;;;;;8.00;7.00;;;28.10;92.20;;;;;;5001434;28;20224;-78
2023/06/17 07:37:38;;;;;;;7.70;6.60;;;28.00;92.30;;;;;;5000899;28;20652;-78
2023/06/17 07:40:10;;;;;;;7.93;6.70;;;28.20;91.60;;;;;;5007015;28;20212;-77
2023/06/17 07:42:39;;;;;;;7.40;6.60;;;28.20;92.10;;;;;;4999302;28;20292;-78
2023/06/17 07:45:06;;;;;;;7.70;5.90;;;28.20;92.20;;;;;;5008089;28;20220;-77
2023/06/17 07:47:33;;;;;;;7.33;6.10;;;28.30;91.60;;;;;;5008238;28;20204;-77
2023/06/17 07:50:00;;;;;;;7.03;6.43;;;28.50;91.80;;;;;;5008139;28;20258;-79
2023/06/17 07:52:27;;;;;;;6.63;6.03;;;28.80;90.40;;;;;;5008710;28;20228;-79
2023/06/17 07:54:53;;;;;;;7.13;6.07;;;28.90;91.50;;;;;;5010383;28;20240;-77
2023/06/17 07:57:20;;;;;;;6.83;6.10;;;28.80;90.10;;;;;;5004012;28;20231;-81
2023/06/17 07:59:48;;;;;;;8.70;6.33;;;28.90;90.50;;;;;;5002559;28;20201;-81
2023/06/17 08:02:15;;;;;;;7.17;5.90;;;29.00;89.10;;;;;;5003739;28;20217;-81
2023/06/17 08:04:42;;;;;;;6.90;6.27;;;29.10;88.60;;;;;;5010978;28;20632;-82
2023/06/17 08:07:10;;;;;;;7.07;6.47;;;29.30;89.10;;;;;;5015684;28;20438;-79
2023/06/17 08:09:37;;;;;;;8.18;6.30;;;29.60;89.80;;;;;;5010323;28;20811;-82
2023/06/17 08:12:05;;;;;;;6.97;6.27;;;29.60;86.50;;;;;;5004913;28;20200;-77
2023/06/17 08:14:32;;;;;;;6.80;6.20;;;29.60;87.90;;;;;;5011738;28;20247;-78
2023/06/17 08:17:00;;;;;;;7.37;6.63;;;29.80;89.20;;;;;;5004250;28;20197;-79
2023/06/17 08:19:27;;;;;;;7.25;6.55;;;29.90;88.40;;;;;;5008197;28;20444;-76
2023/06/17 08:21:54;;;;;;;8.67;6.37;;;29.70;87.80;;;;;;5006227;28;20281;-78
2023/06/17 08:24:22;;;;;;;9.20;6.83;;;29.80;89.10;;;;;;5008050;28;20228;-77
2023/06/17 08:26:50;;;;;;;7.33;6.57;;;29.90;85.00;;;;;;5005976;28;20233;-78
2023/06/17 08:29:17;;;;;;;7.10;6.40;;;30.30;85.60;;;;;;5005388;28;20197;-76
2023/06/17 08:31:46;;;;;;;7.13;6.43;;;30.60;83.80;;;;;;5009331;28;20738;-76
2023/06/17 08:34:14;;;;;;;7.40;6.57;;;30.80;81.10;;;;;;5005178;28;20232;-78
2023/06/17 08:36:43;;;;;;;6.83;6.13;;;30.80;83.40;;;;;;5011761;28;20208;-78
2023/06/17 08:39:10;;;;;;;8.83;6.90;;;31.20;82.80;;;;;;4999930;28;20208;-78
2023/06/17 08:41:39;;;;;;;6.50;5.90;;;31.40;83.60;;;;;;5007408;28;20221;-78
2023/06/17 08:44:07;;;;;;;7.40;6.57;;;31.30;80.50;;;;;;5006471;28;20363;-77
2023/06/17 08:46:35;;;;;;;8.10;6.33;;;31.50;77.50;;;;;;5005988;28;20200;-76
2023/06/17 08:49:03;;;;;;;6.88;6.20;;;31.30;77.10;;;;;;5004705;28;20675;-77
2023/06/17 08:51:31;;;;;;;6.97;6.05;;;31.40;78.60;;;;;;5004615;28;20208;-76
2023/06/17 08:53:58;;;;;;;19.77;7.00;;;31.30;78.70;;;;;;5002840;28;20306;-76
2023/06/17 08:56:25;;;;;;;17.05;6.38;;;31.40;74.00;;;;;;5002006;28;20642;-77
2023/06/17 08:58:54;;;;;;;23.27;7.88;;;31.70;75.60;;;;;;5004539;28;20200;-76
2023/06/17 09:01:21;;;;;;;20.38;7.80;;;32.10;76.20;;;;;;5004467;28;20219;-77
2023/06/17 09:03:51;;;;;;;8.13;6.60;;;34.10;91.10;;;;;;5006187;28;20217;-78
2023/06/17 09:06:25;;;;;;;10.95;7.03;;;32.40;83.30;;;;;;5004654;28;20205;-76
2023/06/17 09:08:54;;;;;;;10.10;6.50;;;32.30;76.40;;;;;;5004237;28;20292;-76
2023/06/17 09:11:23;;;;;;;8.73;6.20;;;32.20;74.20;;;;;;5005000;28;20200;-76
2023/06/17 09:13:52;;;;;;;11.65;5.95;;;32.20;75.20;;;;;;5001097;28;20311;-77
2023/06/17 09:16:19;;;;;;;6.38;5.57;;;32.20;71.20;;;;;;5008432;28;20213;-75
2023/06/17 09:18:46;;;;;;;7.18;6.03;;;32.00;73.60;;;;;;5011491;28;20207;-81
2023/06/17 09:21:17;;;;;;;6.35;5.75;;;31.80;70.70;;;;;;5005205;28;20280;-84
2023/06/17 09:23:54;;;;;;;6.50;5.53;;;31.80;70.40;;;;;;5002484;28;20589;-81
2023/06/17 09:26:24;;;;;;;6.05;5.45;;;31.80;70.50;;;;;;5009397;28;20579;-80
2023/06/17 09:28:50;;;;;;;6.63;5.50;;;32.00;71.40;;;;;;5000776;28;20255;-81
2023/06/17 09:31:18;;;;;;;6.75;5.50;;;32.10;69.10;;;;;;5000758;28;20193;-80
2023/06/17 09:33:46;;;;;;;6.10;5.47;;;32.10;66.60;;;;;;5010662;28;20312;-82
2023/06/17 09:36:14;;;;;;;5.60;4.97;;;32.40;65.70;;;;;;5017006;28;20263;-83
2023/06/17 09:38:42;;;;;;;6.50;5.40;;;32.40;64.40;;;;;;5006152;28;20556;-82
2023/06/17 09:41:15;;;;;;;5.68;5.18;;;32.30;63.10;;;;;;5007843;28;20216;-81
2023/06/17 09:43:42;;;;;;;5.18;4.68;;;32.30;62.40;;;;;;5000174;28;20233;-81
2023/06/17 09:46:11;;;;;;;5.57;4.80;;;32.30;62.10;;;;;;5002617;28;20553;-79
2023/06/17 09:48:38;;;;;;;5.25;4.78;;;32.50;60.00;;;;;;5005929;28;20743;-80
2023/06/17 09:51:09;;;;;;;5.70;5.20;;;32.50;61.80;;;;;;5001650;28;20276;-80
2023/06/17 09:53:36;;;;;;;7.25;4.95;;;32.60;62.10;;;;;;5002316;28;20295;-81
2023/06/17 09:56:04;;;;;;;5.00;4.50;;;32.60;62.10;;;;;;5007088;28;20196;-81
2023/06/17 09:58:34;;;;;;;5.10;4.60;;;32.80;58.70;;;;;;5006089;28;20259;-80
2023/06/17 10:01:05;;;;;;;5.63;5.05;;;32.80;59.60;;;;;;4999227;28;20209;-79
2023/06/17 10:03:32;;;;;;;6.00;5.15;;;32.80;60.50;;;;;;4999260;28;20696;-79
2023/06/17 10:06:03;;;;;;;6.03;5.53;;;32.60;61.50;;;;;;5003383;28;20201;-80
2023/06/17 10:08:32;;;;;;;5.63;4.82;;;32.40;61.30;;;;;;5000521;28;20205;-82
2023/06/17 10:10:59;;;;;;;5.45;4.70;;;32.80;62.50;;;;;;5001574;28;20216;-79
2023/06/17 10:13:28;;;;;;;7.18;5.43;;;33.00;61.00;;;;;;5002135;28;20229;-79
2023/06/17 10:16:00;;;;;;;6.28;5.05;;;33.20;61.40;;;;;;5006315;28;20209;-81
2023/06/17 10:18:29;;;;;;;6.25;4.97;;;32.80;63.20;;;;;;5009571;28;20228;-80
2023/06/17 10:20:57;;;;;;;5.95;5.35;;;32.60;61.10;;;;;;5004112;28;20221;-83
2023/06/17 10:23:26;;;;;;;5.40;4.90;;;32.60;63.40;;;;;;5010312;28;20205;-81
2023/06/17 10:25:54;;;;;;;6.35;5.57;;;32.80;61.90;;;;;;5004996;28;20196;-81
2023/06/17 10:28:21;;;;;;;5.68;5.10;;;32.50;62.60;;;;;;5003743;28;20583;-80
2023/06/17 10:30:51;;;;;;;5.38;4.78;;;32.60;62.80;;;;;;5004729;28;20651;-80
2023/06/17 10:33:27;;;;;;;5.50;5.05;;;32.70;64.10;;;;;;5005856;28;20210;-81
2023/06/17 10:36:07;;;;;;;5.93;5.32;;;32.70;61.90;;;;;;5012847;28;20433;-80
2023/06/17 10:38:34;;;;;;;5.90;5.40;;;32.60;61.90;;;;;;5005109;28;20459;-81
2023/06/17 10:41:01;;;;;;;5.53;5.00;;;32.30;63.10;;;;;;5018205;28;20213;-82
2023/06/17 10:43:35;;;;;;;5.90;5.32;;;32.10;61.40;;;;;;4998795;28;20239;-79
2023/06/17 10:46:02;;;;;;;5.47;5.05;;;31.50;62.00;;;;;;5007692;28;20204;-82
2023/06/17 10:48:32;;;;;;;6.20;5.60;;;31.10;64.40;;;;;;5016507;28;20193;-80
2023/06/17 10:51:02;;;;;;;6.30;5.70;;;30.50;64.10;;;;;;5012304;28;20287;-83
2023/06/17 10:53:30;;;;;;;5.60;5.10;;;30.10;64.80;;;;;;5017597;28;20247;-83
2023/06/17 10:55:58;;;;;;;5.60;5.10;;;29.60;65.60;;;;;;5020192;28;20197;-82
2023/06/17 10:58:33;;;;;;;5.37;4.00;;;29.80;63.20;;;;;;5011359;28;20209;-80
2023/06/17 11:01:04;;;;;;;5.47;4.27;;;29.40;66.40;;;;;;5002600;28;20199;-81
2023/06/17 11:03:33;;;;;;;5.53;5.03;;;29.60;65.50;;;;;;4997805;28;20343;-81
2023/06/17 11:06:01;;;;;;;5.30;4.80;;;30.00;67.00;;;;;;5008595;28;20286;-79
2023/06/17 11:08:30;;;;;;;5.90;4.33;;;30.30;65.80;;;;;;5015455;28;20200;-78
2023/06/17 11:11:10;;;;;;;5.33;4.83;;;30.50;66.00;;;;;;5010889;28;20279;-81
2023/06/17 11:13:39;;;;;;;4.47;4.10;;;30.70;66.20;;;;;;5013894;28;20676;-82
2023/06/17 11:16:06;;;;;;;4.20;3.67;;;30.90;63.80;;;;;;5006674;28;20212;-81
2023/06/17 11:18:37;;;;;;;4.47;4.00;;;31.10;64.50;;;;;;5010079;28;20262;-81
2023/06/17 11:21:04;;;;;;;5.30;3.70;;;31.10;64.30;;;;;;5016115;28;20213;-81
2023/06/17 11:23:31;;;;;;;5.20;4.70;;;31.20;63.30;;;;;;5011219;28;20220;-82
2023/06/17 11:25:59;;;;;;;6.67;4.00;;;31.30;63.40;;;;;;5013639;28;20196;-80
2023/06/17 11:28:25;;;;;;;4.37;3.87;;;31.30;61.50;;;;;;5017031;28;20671;-82
2023/06/17 11:30:52;;;;;;;7.90;4.10;;;31.10;63.20;;;;;;5014257;28;20647;-81
2023/06/17 11:33:21;;;;;;;4.77;4.27;;;31.20;62.80;;;;;;5002256;28;20232;-79
2023/06/17 11:35:50;;;;;;;5.90;5.30;;;31.30;62.70;;;;;;5008091;28;20263;-80
2023/06/17 11:38:19;;;;;;;5.37;4.87;;;31.20;60.90;;;;;;5007973;28;20217;-81
2023/06/17 11:40:45;;;;;;;8.17;5.23;;;31.40;63.20;;;;;;5008560;28;20219;-79
2023/06/17 11:43:13;;;;;;;5.53;4.93;;;31.20;61.50;;;;;;5006188;28;20217;-79
2023/06/17 11:45:39;;;;;;;8.33;5.30;;;31.20;62.30;;;;;;5010793;28;20266;-81
2023/06/17 11:48:07;;;;;;;6.63;5.80;;;31.40;64.70;;;;;;5009261;28;20667;-79
2023/06/17 11:50:36;;;;;;;6.47;5.40;;;31.50;64.00;;;;;;5015218;28;20196;-80
2023/06/17 11:53:05;;;;;;;5.93;5.18;;;31.50;64.30;;;;;;5005215;28;20205;-82
2023/06/17 11:55:33;;;;;;;5.70;5.20;;;31.60;64.40;;;;;;5002224;28;20205;-81
2023/06/17 11:58:01;;;;;;;5.50;5.00;;;31.50;65.30;;;;;;5007346;28;20618;-81
2023/06/17 12:00:28;;;;;;;7.32;5.72;;;30.90;65.40;;;;;;5007961;28;20208;-77
2023/06/17 12:02:56;;;;;;;6.73;6.13;;;30.50;65.10;;;;;;5002484;28;20221;-77
2023/06/17 12:05:27;;;;;;;6.67;4.60;;;30.00;67.10;;;;;;5001816;28;20224;-77
2023/06/17 12:07:54;;;;;;;5.87;5.27;;;29.80;67.60;;;;;;5002813;28;20284;-78
2023/06/17 12:10:22;;;;;;;7.77;4.70;;;29.80;67.50;;;;;;5002750;28;20197;-76
2023/06/17 12:12:49;;;;;;;7.83;4.47;;;29.90;67.50;;;;;;5008235;28;20196;-77
2023/06/17 12:15:16;;;;;;;4.87;4.20;;;29.80;66.40;;;;;;5004662;28;20640;-76
2023/06/17 12:17:46;;;;;;;5.80;4.87;;;29.60;68.20;;;;;;5006034;28;20550;-77
2023/06/17 12:20:15;;;;;;;6.07;4.60;;;29.60;66.60;;;;;;5014028;28;20214;-84
2023/06/17 12:22:42;;;;;;;4.60;4.10;;;29.60;68.10;;;;;;5002695;28;20209;-78
2023/06/17 12:25:10;;;;;;;7.47;4.37;;;29.50;66.00;;;;;;5015244;28;20224;-78
2023/06/17 12:27:38;;;;;;;4.93;4.13;;;29.50;67.40;;;;;;5010000;28;20232;-78
2023/06/17 12:30:07;;;;;;;5.63;3.97;;;29.50;67.60;;;;;;5003648;28;20197;-77
2023/06/17 12:32:35;;;;;;;6.10;3.87;;;29.70;66.90;;;;;;5005371;28;20291;-77
2023/06/17 12:35:02;;;;;;;4.70;3.73;;;29.50;66.10;;;;;;5000287;28;20244;-77
2023/06/17 12:37:31;;;;;;;4.50;3.67;;;29.40;68.50;;;;;;5004772;28;20225;-78
2023/06/17 12:40:00;;;;;;;4.43;4.03;;;29.50;67.30;;;;;;5008878;28;20199;-77
2023/06/17 12:42:27;;;;;;;4.67;3.83;;;29.90;65.50;;;;;;5001959;28;20209;-81
2023/06/17 12:44:55;;;;;;;5.40;4.13;;;29.70;65.40;;;;;;5006226;28;20231;-76
2023/06/17 12:47:23;;;;;;;5.30;4.00;;;29.50;66.60;;;;;;4996970;28;20216;-77
2023/06/17 12:49:50;;;;;;;6.30;4.57;;;29.30;66.70;;;;;;5009109;28;20205;-78